sensor_id;sensor_type;location;lat;lon;timestamp;P1;durP1;ratioP1;P2;durP2;ratioP2
77359;SDS011;66426;51.454;7.266;2023-06-14T00:00:20;8.57;;;5.50;;
77359;SDS011;66426;51.454;7.266;2023-06-14T00:01:21;7.60;;;5.85;;
77359;SDS011;66426;51.454;7.266;2023-06-14T00:02:22;9.38;;;6.30;;
77359;SDS011;66426;51.454;7.266;2023-06-14T00:03:25;8.48;;;5.60;;
77359;SDS011;66426;51.454;7.266;2023-06-14T00:04:26;7.95;;;5.63;;
77359;SDS011;66426;51.454;7.266;2023-06-14T00:05:27;8.00;;;5.25;;
77359;SDS011;66426;51.454;7.266;2023-06-14T00:06:30;9.20;;;5.80;;
77359;SDS011;66426;51.454;7.266;2023-06-14T00:07:34;8.73;;;5.30;;
77359;SDS011;66426;51.454;7.266;2023-06-14T00:08:35;9.52;;;5.97;;
77359;SDS011;66426;51.454;7.266;2023-06-14T00:09:37;8.02;;;5.20;;
77359;SDS011;66426;51.454;7.266;2023-06-14T00:10:38;8.75;;;5.32;;
77359;SDS011;66426;51.454;7.266;2023-06-14T00:11:41;9.13;;;5.40;;
77359;SDS011;66426;51.454;7.266;2023-06-14T00:12:42;9.25;;;5.05;;
77359;SDS011;66426;51.454;7.266;2023-06-14T00:13:43;7.35;;;4.70;;
77359;SDS011;66426;51.454;7.266;2023-06-14T00:14:44;8.60;;;5.25;;
77359;SDS011;66426;51.454;7.266;2023-06-14T00:15:46;14.32;;;5.72;;
77359;SDS011;66426;51.454;7.266;2023-06-14T00:16:48;7.88;;;4.72;;
77359;SDS011;66426;51.454;7.266;2023-06-14T00:17:48;8.93;;;5.22;;
77359;SDS011;66426;51.454;7.266;2023-06-14T00:18:51;7.05;;;5.13;;
77359;SDS011;66426;51.454;7.266;2023-06-14T00:19:54;6.80;;;4.60;;
77359;SDS011;66426;51.454;7.266;2023-06-14T00:20:57;7.72;;;5.13;;
77359;SDS011;66426;51.454;7.266;2023-06-14T00:21:58;7.55;;;4.63;;
77359;SDS011;66426;51.454;7.266;2023-06-14T00:22:59;7.45;;;4.65;;
77359;SDS011;66426;51.454;7.266;2023-06-14T00:24:00;7.97;;;4.88;;
77359;SDS011;66426;51.454;7.266;2023-06-14T00:25:01;7.25;;;4.80;;
77359;SDS011;66426;51.454;7.266;2023-06-14T00:26:03;7.93;;;4.97;;
77359;SDS011;66426;51.454;7.266;2023-06-14T00:27:04;10.85;;;4.75;;
77359;SDS011;66426;51.454;7.266;2023-06-14T00:28:06;7.53;;;4.88;;
77359;SDS011;66426;51.454;7.266;2023-06-14T00:29:07;7.78;;;4.50;;
77359;SDS011;66426;51.454;7.266;2023-06-14T00:30:08;8.77;;;5.05;;
77359;SDS011;66426;51.454;7.266;2023-06-14T00:31:10;7.25;;;4.55;;
77359;SDS011;66426;51.454;7.266;2023-06-14T00:32:11;8.07;;;5.18;;
77359;SDS011;66426;51.454;7.266;2023-06-14T00:33:12;7.35;;;4.60;;
77359;SDS011;66426;51.454;7.266;2023-06-14T00:34:14;8.27;;;4.63;;
77359;SDS011;66426;51.454;7.266;2023-06-14T00:35:15;7.65;;;4.65;;
77359;SDS011;66426;51.454;7.266;2023-06-14T00:36:16;13.60;;;4.90;;
77359;SDS011;66426;51.454;7.266;2023-06-14T00:37:17;8.35;;;4.43;;
77359;SDS011;66426;51.454;7.266;2023-06-14T00:38:18;9.25;;;4.82;;
77359;SDS011;66426;51.454;7.266;2023-06-14T00:39:19;7.80;;;4.60;;
77359;SDS011;66426;51.454;7.266;2023-06-14T00:40:20;8.02;;;4.68;;
77359;SDS011;66426;51.454;7.266;2023-06-14T00:41:21;8.40;;;4.68;;
77359;SDS011;66426;51.454;7.266;2023-06-14T00:42:25;6.75;;;4.45;;
77359;SDS011;66426;51.454;7.266;2023-06-14T00:43:26;8.38;;;4.90;;
77359;SDS011;66426;51.454;7.266;2023-06-14T00:44:27;7.88;;;4.78;;
77359;SDS011;66426;51.454;7.266;2023-06-14T00:45:28;7.22;;;4.40;;
77359;SDS011;66426;51.454;7.266;2023-06-14T00:46:31;6.15;;;4.30;;
77359;SDS011;66426;51.454;7.266;2023-06-14T00:47:32;8.25;;;4.50;;
77359;SDS011;66426;51.454;7.266;2023-06-14T00:48:34;7.90;;;4.85;;
77359;SDS011;66426;51.454;7.266;2023-06-14T00:49:38;8.00;;;4.53;;
77359;SDS011;66426;51.454;7.266;2023-06-14T00:50:39;7.75;;;4.72;;
77359;SDS011;66426;51.454;7.266;2023-06-14T00:51:41;8.27;;;4.40;;
77359;SDS011;66426;51.454;7.266;2023-06-14T00:52:42;6.90;;;4.57;;
77359;SDS011;66426;51.454;7.266;2023-06-14T00:53:43;6.20;;;4.43;;
77359;SDS011;66426;51.454;7.266;2023-06-14T00:54:47;5.60;;;4.30;;
77359;SDS011;66426;51.454;7.266;2023-06-14T00:55:48;8.05;;;4.43;;
77359;SDS011;66426;51.454;7.266;2023-06-14T00:56:49;5.88;;;4.18;;
77359;SDS011;66426;51.454;7.266;2023-06-14T00:57:50;9.38;;;4.30;;
77359;SDS011;66426;51.454;7.266;2023-06-14T00:58:51;7.53;;;4.50;;
77359;SDS011;66426;51.454;7.266;2023-06-14T00:59:53;7.57;;;4.13;;
77359;SDS011;66426;51.454;7.266;2023-06-14T01:00:55;8.57;;;4.00;;
77359;SDS011;66426;51.454;7.266;2023-06-14T01:01:57;6.30;;;4.40;;
77359;SDS011;66426;51.454;7.266;2023-06-14T01:02:58;7.45;;;4.68;;
77359;SDS011;66426;51.454;7.266;2023-06-14T01:03:58;8.23;;;4.07;;
77359;SDS011;66426;51.454;7.266;2023-06-14T01:05:01;7.07;;;4.00;;
77359;SDS011;66426;51.454;7.266;2023-06-14T01:06:04;9.18;;;4.28;;
77359;SDS011;66426;51.454;7.266;2023-06-14T01:07:18;7.07;;;4.30;;
77359;SDS011;66426;51.454;7.266;2023-06-14T01:08:28;6.50;;;4.28;;
77359;SDS011;66426;51.454;7.266;2023-06-14T01:09:41;6.82;;;4.28;;
77359;SDS011;66426;51.454;7.266;2023-06-14T01:10:51;6.60;;;4.03;;
77359;SDS011;66426;51.454;7.266;2023-06-14T01:11:58;8.30;;;3.97;;
77359;SDS011;66426;51.454;7.266;2023-06-14T01:13:06;7.97;;;4.45;;
77359;SDS011;66426;51.454;7.266;2023-06-14T01:14:11;6.35;;;4.35;;
77359;SDS011;66426;51.454;7.266;2023-06-14T01:15:14;10.48;;;4.35;;
77359;SDS011;66426;51.454;7.266;2023-06-14T01:16:16;6.60;;;4.30;;
77359;SDS011;66426;51.454;7.266;2023-06-14T01:17:18;7.57;;;4.63;;
77359;SDS011;66426;51.454;7.266;2023-06-14T01:18:19;5.53;;;3.95;;
77359;SDS011;66426;51.454;7.266;2023-06-14T01:19:21;5.65;;;3.85;;
77359;SDS011;66426;51.454;7.266;2023-06-14T01:20:28;6.13;;;3.85;;
77359;SDS011;66426;51.454;7.266;2023-06-14T01:21:30;8.35;;;4.00;;
77359;SDS011;66426;51.454;7.266;2023-06-14T01:22:31;6.32;;;3.83;;
77359;SDS011;66426;51.454;7.266;2023-06-14T01:23:33;7.45;;;4.00;;
77359;SDS011;66426;51.454;7.266;2023-06-14T01:24:34;7.50;;;4.10;;
77359;SDS011;66426;51.454;7.266;2023-06-14T01:25:35;6.20;;;4.05;;
77359;SDS011;66426;51.454;7.266;2023-06-14T01:26:37;9.18;;;4.30;;
77359;SDS011;66426;51.454;7.266;2023-06-14T01:27:47;7.85;;;4.40;;
77359;SDS011;66426;51.454;7.266;2023-06-14T01:28:49;7.55;;;3.83;;
77359;SDS011;66426;51.454;7.266;2023-06-14T01:29:51;6.35;;;4.25;;
77359;SDS011;66426;51.454;7.266;2023-06-14T01:30:57;7.22;;;3.88;;
77359;SDS011;66426;51.454;7.266;2023-06-14T01:32:04;6.43;;;4.00;;
77359;SDS011;66426;51.454;7.266;2023-06-14T01:33:07;7.00;;;4.00;;
77359;SDS011;66426;51.454;7.266;2023-06-14T01:34:08;6.75;;;4.35;;
77359;SDS011;66426;51.454;7.266;2023-06-14T01:35:09;7.50;;;4.05;;
77359;SDS011;66426;51.454;7.266;2023-06-14T01:36:10;6.72;;;4.20;;
77359;SDS011;66426;51.454;7.266;2023-06-14T01:37:12;8.65;;;4.38;;
77359;SDS011;66426;51.454;7.266;2023-06-14T01:38:14;6.95;;;3.90;;
77359;SDS011;66426;51.454;7.266;2023-06-14T01:39:19;7.82;;;4.05;;
77359;SDS011;66426;51.454;7.266;2023-06-14T01:40:20;7.95;;;4.70;;
77359;SDS011;66426;51.454;7.266;2023-06-14T01:41:23;7.47;;;4.20;;
77359;SDS011;66426;51.454;7.266;2023-06-14T01:42:25;5.57;;;3.72;;
77359;SDS011;66426;51.454;7.266;2023-06-14T01:43:27;9.38;;;4.30;;
77359;SDS011;66426;51.454;7.266;2023-06-14T01:44:30;6.38;;;3.88;;
77359;SDS011;66426;51.454;7.266;2023-06-14T01:45:32;7.07;;;4.05;;
77359;SDS011;66426;51.454;7.266;2023-06-14T01:46:35;5.57;;;3.95;;
77359;SDS011;66426;51.454;7.266;2023-06-14T01:47:37;5.47;;;4.00;;
77359;SDS011;66426;51.454;7.266;2023-06-14T01:48:39;6.28;;;4.15;;
77359;SDS011;66426;51.454;7.266;2023-06-14T01:49:40;8.20;;;4.25;;
77359;SDS011;66426;51.454;7.266;2023-06-14T01:50:41;6.70;;;4.03;;
77359;SDS011;66426;51.454;7.266;2023-06-14T01:51:42;8.52;;;4.03;;
77359;SDS011;66426;51.454;7.266;2023-06-14T01:52:44;7.30;;;3.97;;
77359;SDS011;66426;51.454;7.266;2023-06-14T01:53:45;6.05;;;3.88;;
77359;SDS011;66426;51.454;7.266;2023-06-14T01:54:48;7.32;;;4.10;;
77359;SDS011;66426;51.454;7.266;2023-06-14T01:55:50;7.45;;;4.35;;
77359;SDS011;66426;51.454;7.266;2023-06-14T01:56:54;6.60;;;4.00;;
77359;SDS011;66426;51.454;7.266;2023-06-14T01:57:55;7.80;;;4.28;;
77359;SDS011;66426;51.454;7.266;2023-06-14T01:58:56;6.40;;;4.32;;
77359;SDS011;66426;51.454;7.266;2023-06-14T01:59:57;6.32;;;4.07;;
77359;SDS011;66426;51.454;7.266;2023-06-14T02:00:58;6.32;;;3.95;;
77359;SDS011;66426;51.454;7.266;2023-06-14T02:02:02;5.97;;;3.90;;
77359;SDS011;66426;51.454;7.266;2023-06-14T02:03:03;7.97;;;4.03;;
77359;SDS011;66426;51.454;7.266;2023-06-14T02:04:04;6.97;;;3.88;;
77359;SDS011;66426;51.454;7.266;2023-06-14T02:05:05;5.70;;;3.80;;
77359;SDS011;66426;51.454;7.266;2023-06-14T02:06:06;7.78;;;4.38;;
77359;SDS011;66426;51.454;7.266;2023-06-14T02:07:07;6.97;;;4.30;;
77359;SDS011;66426;51.454;7.266;2023-06-14T02:08:08;6.13;;;3.97;;
77359;SDS011;66426;51.454;7.266;2023-06-14T02:09:09;8.43;;;3.78;;
77359;SDS011;66426;51.454;7.266;2023-06-14T02:10:12;7.55;;;4.18;;
77359;SDS011;66426;51.454;7.266;2023-06-14T02:11:14;6.30;;;3.70;;
77359;SDS011;66426;51.454;7.266;2023-06-14T02:12:16;5.97;;;3.95;;
77359;SDS011;66426;51.454;7.266;2023-06-14T02:13:17;7.32;;;4.35;;
77359;SDS011;66426;51.454;7.266;2023-06-14T02:14:18;5.75;;;3.90;;
77359;SDS011;66426;51.454;7.266;2023-06-14T02:15:18;5.82;;;3.97;;
77359;SDS011;66426;51.454;7.266;2023-06-14T02:16:20;7.68;;;4.18;;
77359;SDS011;66426;51.454;7.266;2023-06-14T02:17:21;7.28;;;3.83;;
77359;SDS011;66426;51.454;7.266;2023-06-14T02:18:22;6.70;;;3.92;;
77359;SDS011;66426;51.454;7.266;2023-06-14T02:19:23;10.35;;;4.15;;
77359;SDS011;66426;51.454;7.266;2023-06-14T02:20:24;7.20;;;3.97;;
77359;SDS011;66426;51.454;7.266;2023-06-14T02:21:25;6.78;;;4.25;;
77359;SDS011;66426;51.454;7.266;2023-06-14T02:22:26;7.72;;;4.05;;
77359;SDS011;66426;51.454;7.266;2023-06-14T02:23:27;7.20;;;4.13;;
77359;SDS011;66426;51.454;7.266;2023-06-14T02:24:28;6.03;;;3.80;;
77359;SDS011;66426;51.454;7.266;2023-06-14T02:25:30;7.45;;;4.20;;
77359;SDS011;66426;51.454;7.266;2023-06-14T02:26:31;7.05;;;3.97;;
77359;SDS011;66426;51.454;7.266;2023-06-14T02:27:32;6.72;;;3.72;;
77359;SDS011;66426;51.454;7.266;2023-06-14T02:28:34;7.45;;;3.95;;
77359;SDS011;66426;51.454;7.266;2023-06-14T02:29:36;7.97;;;4.18;;
77359;SDS011;66426;51.454;7.266;2023-06-14T02:30:37;5.72;;;3.75;;
77359;SDS011;66426;51.454;7.266;2023-06-14T02:31:38;5.70;;;3.88;;
77359;SDS011;66426;51.454;7.266;2023-06-14T02:32:39;5.78;;;3.67;;
77359;SDS011;66426;51.454;7.266;2023-06-14T02:33:44;6.60;;;3.80;;
77359;SDS011;66426;51.454;7.266;2023-06-14T02:34:45;5.30;;;3.50;;
77359;SDS011;66426;51.454;7.266;2023-06-14T02:35:50;7.90;;;4.00;;
77359;SDS011;66426;51.454;7.266;2023-06-14T02:36:51;7.25;;;4.20;;
77359;SDS011;66426;51.454;7.266;2023-06-14T02:37:53;6.72;;;4.20;;
77359;SDS011;66426;51.454;7.266;2023-06-14T02:38:54;7.88;;;4.00;;
77359;SDS011;66426;51.454;7.266;2023-06-14T02:39:55;6.70;;;3.80;;
77359;SDS011;66426;51.454;7.266;2023-06-14T02:40:58;7.28;;;4.05;;
77359;SDS011;66426;51.454;7.266;2023-06-14T02:42:00;5.53;;;3.90;;
77359;SDS011;66426;51.454;7.266;2023-06-14T02:43:01;6.45;;;4.15;;
77359;SDS011;66426;51.454;7.266;2023-06-14T02:44:02;6.82;;;4.40;;
77359;SDS011;66426;51.454;7.266;2023-06-14T02:45:04;6.05;;;4.10;;
77359;SDS011;66426;51.454;7.266;2023-06-14T02:46:06;5.20;;;3.60;;
77359;SDS011;66426;51.454;7.266;2023-06-14T02:47:07;5.85;;;3.60;;
77359;SDS011;66426;51.454;7.266;2023-06-14T02:48:08;9.38;;;3.95;;
77359;SDS011;66426;51.454;7.266;2023-06-14T02:49:10;5.82;;;3.75;;
77359;SDS011;66426;51.454;7.266;2023-06-14T02:50:11;5.25;;;3.97;;
77359;SDS011;66426;51.454;7.266;2023-06-14T02:51:12;6.57;;;4.25;;
77359;SDS011;66426;51.454;7.266;2023-06-14T02:52:13;6.32;;;3.97;;
77359;SDS011;66426;51.454;7.266;2023-06-14T02:53:14;7.90;;;4.22;;
77359;SDS011;66426;51.454;7.266;2023-06-14T02:56:30;5.05;;;3.35;;
77359;SDS011;66426;51.454;7.266;2023-06-14T02:57:31;6.30;;;4.13;;
77359;SDS011;66426;51.454;7.266;2023-06-14T02:58:33;5.57;;;3.63;;
77359;SDS011;66426;51.454;7.266;2023-06-14T02:59:34;7.15;;;4.10;;
77359;SDS011;66426;51.454;7.266;2023-06-14T03:00:35;5.63;;;3.90;;
77359;SDS011;66426;51.454;7.266;2023-06-14T03:01:36;6.63;;;4.15;;
77359;SDS011;66426;51.454;7.266;2023-06-14T03:02:41;6.05;;;3.45;;
77359;SDS011;66426;51.454;7.266;2023-06-14T03:03:43;5.18;;;3.80;;
77359;SDS011;66426;51.454;7.266;2023-06-14T03:04:44;6.93;;;3.92;;
77359;SDS011;66426;51.454;7.266;2023-06-14T03:05:47;5.60;;;3.65;;
77359;SDS011;66426;51.454;7.266;2023-06-14T03:06:49;4.50;;;3.40;;
77359;SDS011;66426;51.454;7.266;2023-06-14T03:07:50;6.68;;;3.78;;
77359;SDS011;66426;51.454;7.266;2023-06-14T03:08:51;4.93;;;3.60;;
77359;SDS011;66426;51.454;7.266;2023-06-14T03:09:55;6.68;;;4.00;;
77359;SDS011;66426;51.454;7.266;2023-06-14T03:10:56;6.28;;;3.58;;
77359;SDS011;66426;51.454;7.266;2023-06-14T03:11:59;6.63;;;3.60;;
77359;SDS011;66426;51.454;7.266;2023-06-14T03:13:00;6.88;;;4.35;;
77359;SDS011;66426;51.454;7.266;2023-06-14T03:14:02;7.07;;;3.95;;
77359;SDS011;66426;51.454;7.266;2023-06-14T03:15:07;4.88;;;3.53;;
77359;SDS011;66426;51.454;7.266;2023-06-14T03:16:09;6.35;;;3.78;;
77359;SDS011;66426;51.454;7.266;2023-06-14T03:17:11;4.90;;;3.58;;
77359;SDS011;66426;51.454;7.266;2023-06-14T03:18:12;5.47;;;3.55;;
77359;SDS011;66426;51.454;7.266;2023-06-14T03:19:13;5.63;;;4.00;;
77359;SDS011;66426;51.454;7.266;2023-06-14T03:20:14;6.88;;;3.67;;
77359;SDS011;66426;51.454;7.266;2023-06-14T03:21:16;5.95;;;3.70;;
77359;SDS011;66426;51.454;7.266;2023-06-14T03:22:17;5.07;;;3.45;;
77359;SDS011;66426;51.454;7.266;2023-06-14T03:23:18;6.90;;;3.60;;
77359;SDS011;66426;51.454;7.266;2023-06-14T03:24:19;5.00;;;3.55;;
77359;SDS011;66426;51.454;7.266;2023-06-14T03:25:20;7.28;;;3.72;;
77359;SDS011;66426;51.454;7.266;2023-06-14T03:26:22;10.50;;;3.53;;
77359;SDS011;66426;51.454;7.266;2023-06-14T03:27:24;5.75;;;3.50;;
77359;SDS011;66426;51.454;7.266;2023-06-14T03:28:26;7.30;;;3.55;;
77359;SDS011;66426;51.454;7.266;2023-06-14T03:29:27;9.27;;;3.60;;
77359;SDS011;66426;51.454;7.266;2023-06-14T03:30:28;6.45;;;4.13;;
77359;SDS011;66426;51.454;7.266;2023-06-14T03:31:30;6.80;;;3.53;;
77359;SDS011;66426;51.454;7.266;2023-06-14T03:32:34;5.57;;;3.72;;
77359;SDS011;66426;51.454;7.266;2023-06-14T03:33:35;7.00;;;3.78;;
77359;SDS011;66426;51.454;7.266;2023-06-14T03:34:36;4.97;;;3.60;;
77359;SDS011;66426;51.454;7.266;2023-06-14T03:35:39;6.70;;;3.80;;
77359;SDS011;66426;51.454;7.266;2023-06-14T03:36:40;5.65;;;3.45;;
77359;SDS011;66426;51.454;7.266;2023-06-14T03:37:41;5.70;;;3.65;;
77359;SDS011;66426;51.454;7.266;2023-06-14T03:38:42;6.00;;;3.83;;
77359;SDS011;66426;51.454;7.266;2023-06-14T03:39:43;4.90;;;3.10;;
77359;SDS011;66426;51.454;7.266;2023-06-14T03:40:46;15.35;;;4.82;;
77359;SDS011;66426;51.454;7.266;2023-06-14T03:41:47;5.00;;;3.40;;
77359;SDS011;66426;51.454;7.266;2023-06-14T03:42:50;7.03;;;3.70;;
77359;SDS011;66426;51.454;7.266;2023-06-14T03:43:51;5.88;;;3.55;;
77359;SDS011;66426;51.454;7.266;2023-06-14T03:44:51;8.43;;;3.58;;
77359;SDS011;66426;51.454;7.266;2023-06-14T03:45:52;5.95;;;3.30;;
77359;SDS011;66426;51.454;7.266;2023-06-14T03:46:53;5.55;;;3.50;;
77359;SDS011;66426;51.454;7.266;2023-06-14T03:47:54;7.78;;;3.78;;
77359;SDS011;66426;51.454;7.266;2023-06-14T03:48:55;5.78;;;3.83;;
77359;SDS011;66426;51.454;7.266;2023-06-14T03:49:56;7.13;;;3.67;;
77359;SDS011;66426;51.454;7.266;2023-06-14T03:50:57;12.43;;;3.90;;
77359;SDS011;66426;51.454;7.266;2023-06-14T03:51:58;5.70;;;3.13;;
77359;SDS011;66426;51.454;7.266;2023-06-14T03:52:59;6.15;;;3.55;;
77359;SDS011;66426;51.454;7.266;2023-06-14T03:54:01;6.70;;;3.38;;
77359;SDS011;66426;51.454;7.266;2023-06-14T03:55:03;5.38;;;3.42;;
77359;SDS011;66426;51.454;7.266;2023-06-14T03:56:04;11.30;;;3.40;;
77359;SDS011;66426;51.454;7.266;2023-06-14T03:57:05;6.57;;;3.40;;
77359;SDS011;66426;51.454;7.266;2023-06-14T03:58:08;7.20;;;3.53;;
77359;SDS011;66426;51.454;7.266;2023-06-14T03:59:09;5.80;;;4.10;;
77359;SDS011;66426;51.454;7.266;2023-06-14T04:00:11;6.68;;;3.40;;
77359;SDS011;66426;51.454;7.266;2023-06-14T04:01:13;5.25;;;3.20;;
77359;SDS011;66426;51.454;7.266;2023-06-14T04:02:14;5.25;;;3.53;;
77359;SDS011;66426;51.454;7.266;2023-06-14T04:03:18;7.63;;;3.67;;
77359;SDS011;66426;51.454;7.266;2023-06-14T04:04:20;5.25;;;3.40;;
77359;SDS011;66426;51.454;7.266;2023-06-14T04:05:21;4.65;;;3.55;;
77359;SDS011;66426;51.454;7.266;2023-06-14T04:06:23;7.95;;;3.45;;
77359;SDS011;66426;51.454;7.266;2023-06-14T04:07:25;5.88;;;3.45;;
77359;SDS011;66426;51.454;7.266;2023-06-14T04:08:28;6.65;;;3.30;;
77359;SDS011;66426;51.454;7.266;2023-06-14T04:09:29;5.10;;;3.33;;
77359;SDS011;66426;51.454;7.266;2023-06-14T04:10:30;5.63;;;3.60;;
77359;SDS011;66426;51.454;7.266;2023-06-14T04:11:31;5.45;;;2.95;;
77359;SDS011;66426;51.454;7.266;2023-06-14T04:12:32;4.65;;;3.20;;
77359;SDS011;66426;51.454;7.266;2023-06-14T04:13:35;7.20;;;3.20;;
77359;SDS011;66426;51.454;7.266;2023-06-14T04:14:36;4.93;;;3.60;;
77359;SDS011;66426;51.454;7.266;2023-06-14T04:15:37;4.80;;;3.15;;
77359;SDS011;66426;51.454;7.266;2023-06-14T04:16:42;6.00;;;3.70;;
77359;SDS011;66426;51.454;7.266;2023-06-14T04:17:43;6.40;;;3.33;;
77359;SDS011;66426;51.454;7.266;2023-06-14T04:18:44;7.03;;;3.30;;
77359;SDS011;66426;51.454;7.266;2023-06-14T04:19:47;4.53;;;3.13;;
77359;SDS011;66426;51.454;7.266;2023-06-14T04:20:48;5.35;;;3.38;;
77359;SDS011;66426;51.454;7.266;2023-06-14T04:21:49;7.65;;;3.55;;
77359;SDS011;66426;51.454;7.266;2023-06-14T04:22:50;6.38;;;3.10;;
77359;SDS011;66426;51.454;7.266;2023-06-14T04:23:51;6.45;;;3.10;;
77359;SDS011;66426;51.454;7.266;2023-06-14T04:24:53;7.57;;;3.17;;
77359;SDS011;66426;51.454;7.266;2023-06-14T04:25:56;4.45;;;2.75;;
77359;SDS011;66426;51.454;7.266;2023-06-14T04:27:03;5.90;;;3.33;;
77359;SDS011;66426;51.454;7.266;2023-06-14T04:28:04;5.53;;;3.25;;
77359;SDS011;66426;51.454;7.266;2023-06-14T04:29:06;7.15;;;3.30;;
77359;SDS011;66426;51.454;7.266;2023-06-14T04:30:08;7.65;;;3.30;;
77359;SDS011;66426;51.454;7.266;2023-06-14T04:31:09;5.63;;;3.13;;
77359;SDS011;66426;51.454;7.266;2023-06-14T04:32:10;7.43;;;3.28;;
77359;SDS011;66426;51.454;7.266;2023-06-14T04:33:14;4.40;;;2.90;;
77359;SDS011;66426;51.454;7.266;2023-06-14T04:34:15;4.85;;;3.20;;
77359;SDS011;66426;51.454;7.266;2023-06-14T04:35:19;5.70;;;3.00;;
77359;SDS011;66426;51.454;7.266;2023-06-14T04:36:21;5.90;;;3.20;;
77359;SDS011;66426;51.454;7.266;2023-06-14T04:37:22;6.72;;;3.28;;
77359;SDS011;66426;51.454;7.266;2023-06-14T04:38:23;6.45;;;3.38;;
77359;SDS011;66426;51.454;7.266;2023-06-14T04:39:25;5.07;;;2.97;;
77359;SDS011;66426;51.454;7.266;2023-06-14T04:40:27;4.53;;;3.20;;
77359;SDS011;66426;51.454;7.266;2023-06-14T04:41:28;5.65;;;2.95;;
77359;SDS011;66426;51.454;7.266;2023-06-14T04:42:31;5.50;;;3.15;;
77359;SDS011;66426;51.454;7.266;2023-06-14T04:43:32;4.47;;;3.00;;
77359;SDS011;66426;51.454;7.266;2023-06-14T04:44:39;6.15;;;3.30;;
77359;SDS011;66426;51.454;7.266;2023-06-14T04:45:40;5.65;;;3.00;;
77359;SDS011;66426;51.454;7.266;2023-06-14T04:46:45;5.53;;;3.13;;
77359;SDS011;66426;51.454;7.266;2023-06-14T04:47:46;5.25;;;2.92;;
77359;SDS011;66426;51.454;7.266;2023-06-14T04:48:47;7.00;;;2.95;;
77359;SDS011;66426;51.454;7.266;2023-06-14T04:49:51;5.82;;;3.00;;
77359;SDS011;66426;51.454;7.266;2023-06-14T04:50:53;5.80;;;3.10;;
77359;SDS011;66426;51.454;7.266;2023-06-14T04:51:56;7.05;;;3.17;;
77359;SDS011;66426;51.454;7.266;2023-06-14T04:53:01;4.60;;;3.15;;
77359;SDS011;66426;51.454;7.266;2023-06-14T04:54:03;5.40;;;3.33;;
77359;SDS011;66426;51.454;7.266;2023-06-14T04:55:05;4.93;;;2.95;;
77359;SDS011;66426;51.454;7.266;2023-06-14T04:56:07;5.53;;;3.00;;
77359;SDS011;66426;51.454;7.266;2023-06-14T04:57:08;7.43;;;2.80;;
77359;SDS011;66426;51.454;7.266;2023-06-14T04:58:14;6.13;;;2.90;;
77359;SDS011;66426;51.454;7.266;2023-06-14T04:59:15;5.43;;;3.05;;
77359;SDS011;66426;51.454;7.266;2023-06-14T05:00:19;4.53;;;3.05;;
77359;SDS011;66426;51.454;7.266;2023-06-14T05:01:20;4.28;;;2.78;;
77359;SDS011;66426;51.454;7.266;2023-06-14T05:02:23;8.43;;;2.90;;
77359;SDS011;66426;51.454;7.266;2023-06-14T05:03:25;4.47;;;2.75;;
77359;SDS011;66426;51.454;7.266;2023-06-14T05:04:28;7.13;;;3.40;;
77359;SDS011;66426;51.454;7.266;2023-06-14T05:05:29;6.05;;;3.30;;
77359;SDS011;66426;51.454;7.266;2023-06-14T05:06:30;6.97;;;3.13;;
77359;SDS011;66426;51.454;7.266;2023-06-14T05:07:31;5.57;;;3.33;;
77359;SDS011;66426;51.454;7.266;2023-06-14T05:08:34;4.28;;;2.80;;
77359;SDS011;66426;51.454;7.266;2023-06-14T05:09:35;4.25;;;2.58;;
77359;SDS011;66426;51.454;7.266;2023-06-14T05:10:36;5.65;;;2.90;;
77359;SDS011;66426;51.454;7.266;2023-06-14T05:11:37;5.40;;;2.92;;
77359;SDS011;66426;51.454;7.266;2023-06-14T05:12:38;4.95;;;3.10;;
77359;SDS011;66426;51.454;7.266;2023-06-14T05:13:39;5.35;;;3.00;;
77359;SDS011;66426;51.454;7.266;2023-06-14T05:14:41;5.47;;;2.90;;
77359;SDS011;66426;51.454;7.266;2023-06-14T05:15:43;5.13;;;2.85;;
77359;SDS011;66426;51.454;7.266;2023-06-14T05:16:45;3.70;;;2.60;;
77359;SDS011;66426;51.454;7.266;2023-06-14T05:17:46;5.35;;;2.97;;
77359;SDS011;66426;51.454;7.266;2023-06-14T05:18:55;4.00;;;2.72;;
77359;SDS011;66426;51.454;7.266;2023-06-14T05:19:56;5.32;;;2.92;;
77359;SDS011;66426;51.454;7.266;2023-06-14T05:20:57;14.75;;;3.38;;
77359;SDS011;66426;51.454;7.266;2023-06-14T05:21:58;4.35;;;2.85;;
77359;SDS011;66426;51.454;7.266;2023-06-14T05:22:59;6.65;;;3.08;;
77359;SDS011;66426;51.454;7.266;2023-06-14T05:24:01;6.97;;;3.20;;
77359;SDS011;66426;51.454;7.266;2023-06-14T05:25:02;4.35;;;2.60;;
77359;SDS011;66426;51.454;7.266;2023-06-14T05:26:03;5.55;;;2.97;;
77359;SDS011;66426;51.454;7.266;2023-06-14T05:27:05;4.13;;;2.70;;
77359;SDS011;66426;51.454;7.266;2023-06-14T05:28:06;5.50;;;2.78;;
77359;SDS011;66426;51.454;7.266;2023-06-14T05:29:07;5.80;;;3.10;;
77359;SDS011;66426;51.454;7.266;2023-06-14T05:30:08;6.43;;;2.95;;
77359;SDS011;66426;51.454;7.266;2023-06-14T05:31:11;5.60;;;3.00;;
77359;SDS011;66426;51.454;7.266;2023-06-14T05:32:12;6.38;;;2.85;;
77359;SDS011;66426;51.454;7.266;2023-06-14T05:33:13;6.40;;;3.50;;
77359;SDS011;66426;51.454;7.266;2023-06-14T05:34:14;6.72;;;3.35;;
77359;SDS011;66426;51.454;7.266;2023-06-14T05:35:15;6.05;;;3.20;;
77359;SDS011;66426;51.454;7.266;2023-06-14T05:36:16;10.48;;;3.17;;
77359;SDS011;66426;51.454;7.266;2023-06-14T05:37:18;3.85;;;2.63;;
77359;SDS011;66426;51.454;7.266;2023-06-14T05:38:19;7.60;;;2.92;;
77359;SDS011;66426;51.454;7.266;2023-06-14T05:39:20;5.78;;;2.90;;
77359;SDS011;66426;51.454;7.266;2023-06-14T05:40:21;5.43;;;2.97;;
77359;SDS011;66426;51.454;7.266;2023-06-14T05:41:22;4.80;;;2.92;;
77359;SDS011;66426;51.454;7.266;2023-06-14T05:42:23;5.95;;;2.97;;
77359;SDS011;66426;51.454;7.266;2023-06-14T05:43:24;9.50;;;3.30;;
77359;SDS011;66426;51.454;7.266;2023-06-14T05:44:25;8.63;;;3.42;;
77359;SDS011;66426;51.454;7.266;2023-06-14T05:45:26;5.40;;;2.70;;
77359;SDS011;66426;51.454;7.266;2023-06-14T05:46:28;5.07;;;2.80;;
77359;SDS011;66426;51.454;7.266;2023-06-14T05:47:29;4.60;;;3.10;;
77359;SDS011;66426;51.454;7.266;2023-06-14T05:48:30;5.03;;;2.80;;
77359;SDS011;66426;51.454;7.266;2023-06-14T05:49:31;7.35;;;3.10;;
77359;SDS011;66426;51.454;7.266;2023-06-14T05:50:32;7.13;;;3.17;;
77359;SDS011;66426;51.454;7.266;2023-06-14T05:51:33;4.20;;;2.78;;
77359;SDS011;66426;51.454;7.266;2023-06-14T05:52:34;8.80;;;3.28;;
77359;SDS011;66426;51.454;7.266;2023-06-14T05:53:36;6.15;;;2.90;;
77359;SDS011;66426;51.454;7.266;2023-06-14T05:54:37;4.07;;;2.95;;
77359;SDS011;66426;51.454;7.266;2023-06-14T05:55:38;7.53;;;3.08;;
77359;SDS011;66426;51.454;7.266;2023-06-14T05:56:38;3.83;;;2.60;;
77359;SDS011;66426;51.454;7.266;2023-06-14T05:57:39;4.60;;;2.70;;
77359;SDS011;66426;51.454;7.266;2023-06-14T05:58:41;8.07;;;2.83;;
77359;SDS011;66426;51.454;7.266;2023-06-14T05:59:42;8.05;;;2.67;;
77359;SDS011;66426;51.454;7.266;2023-06-14T06:00:43;5.10;;;2.65;;
77359;SDS011;66426;51.454;7.266;2023-06-14T06:01:45;7.68;;;2.60;;
77359;SDS011;66426;51.454;7.266;2023-06-14T06:02:46;5.60;;;2.78;;
77359;SDS011;66426;51.454;7.266;2023-06-14T06:03:48;5.85;;;2.72;;
77359;SDS011;66426;51.454;7.266;2023-06-14T06:04:49;5.25;;;2.72;;
77359;SDS011;66426;51.454;7.266;2023-06-14T06:05:50;6.45;;;2.60;;
77359;SDS011;66426;51.454;7.266;2023-06-14T06:06:51;3.60;;;2.50;;
77359;SDS011;66426;51.454;7.266;2023-06-14T06:07:52;5.80;;;3.17;;
77359;SDS011;66426;51.454;7.266;2023-06-14T06:08:53;4.32;;;2.65;;
77359;SDS011;66426;51.454;7.266;2023-06-14T06:09:54;6.43;;;2.67;;
77359;SDS011;66426;51.454;7.266;2023-06-14T06:10:55;7.93;;;2.78;;
77359;SDS011;66426;51.454;7.266;2023-06-14T06:11:56;6.60;;;2.88;;
77359;SDS011;66426;51.454;7.266;2023-06-14T06:12:57;5.55;;;2.50;;
77359;SDS011;66426;51.454;7.266;2023-06-14T06:13:58;4.20;;;2.70;;
77359;SDS011;66426;51.454;7.266;2023-06-14T06:14:59;3.53;;;2.47;;